Time;durP1;ratioP1;P1;durP2;ratioP2;P2;SDS_P1;SDS_P2;PMS_P1;PMS_P2;Temp;Humidity;BMP_temperature;BMP_pressure;BME280_temperature;BME280_humidity;BME280_pressure;Samples;Min_cycle;Max_cycle;Signal;HPM_P1;HPM_P2
2023/07/07 00:01:49;;;;;;;1999.90;999.90;;;;;;;26.42;38.88;101957.81;5054073;28;20085;-72
2023/07/07 00:04:15;;;;;;;1999.90;999.90;;;;;;;25.78;39.92;101973.09;5056556;28;20032;-72
2023/07/07 00:06:40;;;;;;;1999.90;999.90;;;;;;;25.88;39.80;101968.06;5072478;28;20112;-71
2023/07/07 00:09:06;;;;;;;1999.90;999.90;;;;;;;26.29;38.50;101972.03;5055126;28;20017;-72
2023/07/07 00:11:31;;;;;;;1999.90;999.90;;;;;;;25.97;39.68;101972.06;5051450;28;20439;-71
2023/07/07 00:13:57;;;;;;;1999.90;999.90;;;;;;;25.97;38.94;101966.69;5066897;28;20371;-72
2023/07/07 00:16:27;;;;;;;1999.90;999.90;;;;;;;26.11;38.45;101974.81;5054520;28;20039;-72
2023/07/07 00:18:54;;;;;;;1999.90;999.90;;;;;;;25.87;38.81;101977.94;5055235;28;20107;-71
2023/07/07 00:21:24;;;;;;;1999.90;999.90;;;;;;;25.95;39.19;101969.44;5072341;28;20024;-71
2023/07/07 00:23:53;;;;;;;1999.90;999.90;;;;;;;25.70;39.26;101975.34;5044266;28;20063;-72
2023/07/07 00:26:19;;;;;;;1999.90;999.90;;;;;;;26.13;38.50;101967.56;5041904;28;20025;-70
2023/07/07 00:28:44;;;;;;;1999.90;999.90;;;;;;;25.79;38.67;101966.78;5053854;28;20025;-71
2023/07/07 00:31:10;;;;;;;1999.90;999.90;;;;;;;25.70;39.00;101969.97;5054449;28;20407;-72
2023/07/07 00:33:35;;;;;;;1999.90;999.90;;;;;;;26.05;38.93;101969.84;5050669;28;20492;-71
2023/07/07 00:36:03;;;;;;;1999.90;999.90;;;;;;;25.70;39.28;101969.97;5034232;28;20024;-71
2023/07/07 00:38:29;;;;;;;1999.90;999.90;;;;;;;25.56;39.64;101968.94;5035421;28;20111;-71
2023/07/07 00:40:54;;;;;;;1999.90;999.90;;;;;;;25.70;38.68;101969.97;5034723;28;20116;-71
2023/07/07 00:43:20;;;;;;;1999.90;999.90;;;;;;;25.53;39.12;101963.75;5054053;28;20029;-71
2023/07/07 00:45:46;;;;;;;1999.90;999.90;;;;;;;25.73;38.45;101964.44;5054309;28;20531;-72
2023/07/07 00:48:14;;;;;;;1999.90;999.90;;;;;;;25.89;37.83;101951.06;5041353;28;20027;-71
2023/07/07 00:50:45;;;;;;;1999.90;999.90;;;;;;;25.54;38.13;101960.13;5036761;28;20090;-71
2023/07/07 00:53:12;;;;;;;1999.90;999.90;;;;;;;25.66;38.09;101947.88;5054561;28;20032;-71
2023/07/07 00:55:44;;;;;;;1999.90;999.90;;;;;;;25.57;37.52;101953.75;5078656;28;20151;-72
2023/07/07 00:58:12;;;;;;;1999.90;999.90;;;;;;;25.54;38.55;101957.47;5087616;28;20035;-72
2023/07/07 01:00:41;;;;;;;1999.90;999.90;;;;;;;25.57;37.85;101957.28;5090284;28;20115;-71
2023/07/07 01:03:22;;;;;;;1999.90;999.90;;;;;;;25.73;37.03;101957.31;5089697;28;20442;-71
2023/07/07 01:05:54;;;;;;;1999.90;999.90;;;;;;;25.23;38.69;101952.91;5089054;28;20060;-71
2023/07/07 01:08:20;;;;;;;1999.90;999.90;;;;;;;25.47;38.03;101953.41;5071504;28;20111;-71
2023/07/07 01:10:46;;;;;;;1999.90;999.90;;;;;;;25.84;37.24;101948.66;5070602;28;20055;-72
2023/07/07 01:13:12;;;;;;;1999.90;999.90;;;;;;;26.03;36.54;101944.94;5074287;28;20047;-72
2023/07/07 01:15:52;;;;;;;1999.90;999.90;;;;;;;25.60;37.81;101955.41;5080018;28;20032;-72
2023/07/07 01:18:38;;;;;;;1999.90;999.90;;;;;;;25.35;38.06;101946.91;5090217;28;20032;-71
2023/07/07 01:21:29;;;;;;;1999.90;999.90;;;;;;;24.93;38.92;101950.06;5091046;28;20024;-71
2023/07/07 01:24:18;;;;;;;1999.90;999.90;;;;;;;25.00;39.21;101941.63;5070001;28;20034;-70
2023/07/07 01:26:58;;;;;;;1999.90;999.90;;;;;;;24.80;39.24;101952.50;5079721;28;20043;-72
2023/07/07 01:29:45;;;;;;;1999.90;999.90;;;;;;;24.68;39.62;101948.69;5071226;28;20498;-71
2023/07/07 01:32:16;;;;;;;1999.90;999.90;;;;;;;24.52;39.66;101948.56;5074898;28;20035;-71
2023/07/07 01:34:41;;;;;;;1999.90;999.90;;;;;;;24.92;39.14;101945.66;5089852;28;20387;-71
2023/07/07 01:37:07;;;;;;;1999.90;999.90;;;;;;;25.09;39.15;101942.97;5082479;28;20031;-71
2023/07/07 01:39:33;;;;;;;1999.90;999.90;;;;;;;24.66;40.10;101950.56;5090194;28;20032;-71
2023/07/07 01:42:07;;;;;;;1999.90;999.90;;;;;;;24.51;41.15;101941.50;5089835;28;20016;-71
2023/07/07 01:44:53;;;;;;;1999.90;999.90;;;;;;;24.22;41.21;101946.50;5089802;28;20105;-71
2023/07/07 01:47:23;;;;;;;1999.90;999.90;;;;;;;24.09;41.84;101938.25;5087693;28;20036;-71
2023/07/07 01:49:57;;;;;;;1999.90;999.90;;;;;;;24.14;41.92;101938.91;5085970;28;20020;-71
2023/07/07 01:52:36;;;;;;;1999.90;999.90;;;;;;;23.62;42.75;101952.97;5089487;28;20020;-71
2023/07/07 01:55:19;;;;;;;1999.90;999.90;;;;;;;24.22;41.72;101947.41;5089607;28;20040;-71
2023/07/07 01:57:49;;;;;;;1999.90;999.90;;;;;;;23.94;42.29;101944.38;5089337;28;20031;-71
2023/07/07 02:00:17;;;;;;;1999.90;999.90;;;;;;;23.65;43.39;101946.63;5081977;28;20032;-72
2023/07/07 02:02:43;;;;;;;1999.90;999.90;;;;;;;24.27;42.16;101933.81;5079378;28;20035;-71
2023/07/07 02:05:10;;;;;;;1999.90;999.90;;;;;;;24.36;41.90;101948.53;5090280;28;20035;-71
2023/07/07 02:07:35;;;;;;;1999.90;999.90;;;;;;;23.96;43.06;101945.16;5091342;28;20027;-71
2023/07/07 02:10:01;;;;;;;1999.90;999.90;;;;;;;23.75;43.13;101941.69;5083825;28;20053;-71
2023/07/07 02:12:26;;;;;;;1999.90;999.90;;;;;;;24.14;42.69;101943.38;5072782;28;20024;-70
2023/07/07 02:14:52;;;;;;;1999.90;999.90;;;;;;;23.79;43.56;101941.47;5081926;28;20433;-72
2023/07/07 02:17:18;;;;;;;1999.90;999.90;;;;;;;23.42;44.35;101937.88;5069588;28;20035;-71
2023/07/07 02:19:44;;;;;;;1999.90;999.90;;;;;;;23.55;44.48;101944.38;5069697;28;20025;-72
2023/07/07 02:22:09;;;;;;;1999.90;999.90;;;;;;;24.08;43.17;101923.19;5074228;28;20076;-72
2023/07/07 02:24:35;;;;;;;1999.90;999.90;;;;;;;24.17;43.05;101925.41;5090387;28;20031;-70
2023/07/07 02:27:01;;;;;;;1999.90;999.90;;;;;;;24.39;42.30;101932.31;5089115;28;20028;-70
2023/07/07 02:29:27;;;;;;;1999.90;999.90;;;;;;;24.55;42.29;101935.94;5087105;28;20024;-70
2023/07/07 02:31:52;;;;;;;1999.90;999.90;;;;;;;24.03;43.32;101930.56;5090061;28;20032;-70
2023/07/07 02:34:18;;;;;;;1999.90;999.90;;;;;;;24.21;42.96;101929.63;5089245;28;20027;-71
2023/07/07 02:36:43;;;;;;;1999.90;999.90;;;;;;;23.91;43.95;101936.53;5090194;28;20035;-71
2023/07/07 02:39:09;;;;;;;1999.90;999.90;;;;;;;24.12;43.06;101930.09;5088851;28;20279;-71
2023/07/07 02:41:34;;;;;;;1999.90;999.90;;;;;;;23.99;43.27;101934.34;5089082;28;20499;-69
2023/07/07 02:43:59;;;;;;;1999.90;999.90;;;;;;;24.03;43.42;101928.75;5069679;28;20028;-70
2023/07/07 02:46:25;;;;;;;1999.90;999.90;;;;;;;24.14;43.43;101936.25;5069705;28;20024;-70
2023/07/07 02:48:50;;;;;;;1999.90;999.90;;;;;;;24.13;43.06;101937.16;5087387;28;20032;-71
2023/07/07 02:51:16;;;;;;;1999.90;999.90;;;;;;;24.11;43.10;101944.41;5087329;28;20024;-71
2023/07/07 02:53:41;;;;;;;1999.90;999.90;;;;;;;24.41;42.22;101935.75;5089176;28;20035;-71
2023/07/07 02:56:07;;;;;;;1999.90;999.90;;;;;;;23.89;43.75;101939.22;5088141;28;20056;-71
2023/07/07 02:58:33;;;;;;;1999.90;999.90;;;;;;;23.55;44.55;101952.38;5089331;28;20024;-71
2023/07/07 03:01:09;;;;;;;1999.90;999.90;;;;;;;23.72;44.41;101954.22;5070266;28;20028;-71
2023/07/07 03:03:35;;;;;;;1999.90;999.90;;;;;;;23.48;44.44;101960.72;5083525;28;20035;-70
2023/07/07 03:06:06;;;;;;;1999.90;999.90;;;;;;;23.33;44.95;101957.00;5075664;28;20035;-71
2023/07/07 03:08:32;;;;;;;1999.90;999.90;;;;;;;22.96;45.27;101964.81;5076998;28;20016;-70
2023/07/07 03:10:57;;;;;;;1999.90;999.90;;;;;;;23.36;44.83;101956.84;5082553;28;20399;-71
2023/07/07 03:13:23;;;;;;;1999.90;999.90;;;;;;;23.40;44.42;101953.09;5087505;28;20035;-71
2023/07/07 03:15:48;;;;;;;1999.90;999.90;;;;;;;23.25;44.71;101952.00;5083805;28;20028;-73
2023/07/07 03:18:14;;;;;;;1999.90;999.90;;;;;;;22.82;45.85;101954.78;5070794;28;20034;-70
2023/07/07 03:20:49;;;;;;;1999.90;999.90;;;;;;;22.80;45.73;101953.09;5081511;28;20020;-71
2023/07/07 03:23:15;;;;;;;1999.90;999.90;;;;;;;22.96;45.16;101956.81;5068970;28;20029;-71
2023/07/07 03:25:41;;;;;;;1999.90;999.90;;;;;;;23.56;44.16;101953.22;5070885;28;20035;-72
2023/07/07 03:28:07;;;;;;;1999.90;999.90;;;;;;;22.49;46.21;101944.66;5086876;28;20032;-72
2023/07/07 03:30:34;;;;;;;1999.90;999.90;;;;;;;23.16;44.53;101955.97;5087173;28;20028;-72
2023/07/07 03:33:00;;;;;;;1999.90;999.90;;;;;;;23.39;43.64;101956.69;5088192;28;20114;-71
2023/07/07 03:35:25;;;;;;;1999.90;999.90;;;;;;;23.25;44.21;101959.16;5087702;28;20603;-71
2023/07/07 03:37:51;;;;;;;1999.90;999.90;;;;;;;23.23;43.99;101966.34;5080591;28;20522;-72
2023/07/07 03:40:16;;;;;;;1999.90;999.90;;;;;;;23.72;43.01;101956.03;5088923;28;20032;-72
2023/07/07 03:42:42;;;;;;;1999.90;999.90;;;;;;;23.13;43.82;101956.09;5090351;28;20488;-72
2023/07/07 03:45:07;;;;;;;1999.90;999.90;;;;;;;23.60;43.04;101948.63;5087338;28;20750;-71
2023/07/07 03:47:33;;;;;;;1999.90;999.90;;;;;;;23.63;42.70;101951.13;5078245;28;20616;-71
2023/07/07 03:49:59;;;;;;;1999.90;999.90;;;;;;;23.33;43.14;101946.31;5078544;28;20024;-71
2023/07/07 03:52:25;;;;;;;1999.90;999.90;;;;;;;23.09;43.85;101954.47;5069221;28;20092;-71
2023/07/07 03:54:50;;;;;;;1999.90;999.90;;;;;;;23.41;42.86;101949.50;5073076;28;20140;-71
2023/07/07 03:57:15;;;;;;;1999.90;999.90;;;;;;;23.17;43.54;101957.69;5087850;28;20530;-71
2023/07/07 03:59:41;;;;;;;1999.90;999.90;;;;;;;23.45;42.87;101956.44;5088405;28;20442;-72
2023/07/07 04:02:07;;;;;;;1999.90;999.90;;;;;;;23.50;42.65;101958.88;5087656;28;20483;-72
2023/07/07 04:04:32;;;;;;;1999.90;999.90;;;;;;;22.78;44.11;101955.84;5088425;28;20030;-71
2023/07/07 04:06:58;;;;;;;1999.90;999.90;;;;;;;23.08;43.52;101960.75;5087154;28;20111;-72
2023/07/07 04:09:24;;;;;;;1999.90;999.90;;;;;;;23.34;43.17;101961.38;5068574;28;20117;-71
2023/07/07 04:11:50;;;;;;;1999.90;999.90;;;;;;;23.32;43.00;101966.78;5089026;28;20460;-71
2023/07/07 04:14:15;;;;;;;1999.90;999.90;;;;;;;23.63;42.70;101959.16;5088304;28;20145;-71
2023/07/07 04:16:41;;;;;;;1999.90;999.90;;;;;;;23.48;42.70;101969.63;5077214;28;20051;-72
2023/07/07 04:19:06;;;;;;;1999.90;999.90;;;;;;;23.80;42.30;101961.88;5067810;28;20459;-72
2023/07/07 04:21:34;;;;;;;1999.90;999.90;;;;;;;24.19;40.97;101963.59;5067992;28;20029;-71
2023/07/07 04:24:00;;;;;;;1999.90;999.90;;;;;;;23.57;42.36;101967.47;5070726;28;20420;-71
2023/07/07 04:26:28;;;;;;;1999.90;999.90;;;;;;;24.25;41.01;101961.53;5080254;28;20039;-72
2023/07/07 04:28:56;;;;;;;1999.90;999.90;;;;;;;24.06;41.67;101962.47;5074344;28;20016;-71
2023/07/07 04:31:25;;;;;;;1999.90;999.90;;;;;;;24.02;41.67;101961.72;5068556;28;20050;-72
2023/07/07 04:33:52;;;;;;;1999.90;999.90;;;;;;;23.32;43.11;101965.94;5068694;28;20507;-71
2023/07/07 04:36:18;;;;;;;1999.90;999.90;;;;;;;24.38;40.96;101968.84;5073187;28;20020;-72
2023/07/07 04:38:44;;;;;;;1999.90;999.90;;;;;;;23.97;41.28;101978.91;5088012;28;20051;-71
2023/07/07 04:41:14;;;;;;;1999.90;999.90;;;;;;;23.75;41.92;101963.03;5086178;28;20473;-72
2023/07/07 04:43:43;;;;;;;1999.90;999.90;;;;;;;24.47;40.69;101956.84;5077896;28;20024;-72
2023/07/07 04:46:11;;;;;;;1999.90;999.90;;;;;;;23.47;42.32;101969.69;5085047;28;20506;-72
2023/07/07 04:48:36;;;;;;;1999.90;999.90;;;;;;;23.60;42.43;101965.50;5090949;28;20031;-72
2023/07/07 04:51:07;;;;;;;1999.90;999.90;;;;;;;24.20;41.52;101959.94;5090968;28;20418;-72
2023/07/07 04:53:34;;;;;;;1999.90;999.90;;;;;;;24.65;40.73;101959.56;5093504;28;20038;-72
2023/07/07 04:56:01;;;;;;;1999.90;999.90;;;;;;;26.08;39.10;101953.56;5081092;28;20078;-72
2023/07/07 04:58:28;;;;;;;1999.90;999.90;;;;;;;27.32;36.93;101963.09;5088850;28;20032;-72
2023/07/07 05:01:08;;;;;;;1999.90;999.90;;;;;;;27.70;35.28;101964.31;5092935;28;20028;-72
2023/07/07 05:03:34;;;;;;;1999.90;999.90;;;;;;;28.52;34.08;101954.41;5092702;28;20028;-72
2023/07/07 05:05:59;;;;;;;1999.90;999.90;;;;;;;29.17;32.41;101952.59;5091535;28;20070;-72
2023/07/07 05:08:24;;;;;;;1999.90;999.90;;;;;;;29.25;31.80;101963.69;5086570;28;20028;-72
2023/07/07 05:10:50;;;;;;;1999.90;999.90;;;;;;;29.79;31.58;101961.59;5075703;28;20028;-73
2023/07/07 05:13:15;;;;;;;1999.90;999.90;;;;;;;29.97;30.51;101964.78;5090974;28;20056;-72
2023/07/07 05:15:41;;;;;;;1999.90;999.90;;;;;;;29.29;31.42;101961.63;5085804;28;20115;-72
2023/07/07 05:18:07;;;;;;;1999.90;999.90;;;;;;;28.84;32.34;101964.78;5090564;28;20016;-72
2023/07/07 05:20:32;;;;;;;1999.90;999.90;;;;;;;28.26;33.37;101975.84;5089908;28;20024;-72
2023/07/07 05:22:58;;;;;;;1999.90;999.90;;;;;;;27.92;33.74;101967.31;5082506;28;20050;-72
2023/07/07 05:25:23;;;;;;;1999.90;999.90;;;;;;;27.73;34.51;101977.53;5081612;28;20027;-72
2023/07/07 05:27:49;;;;;;;1999.90;999.90;;;;;;;27.45;34.63;101979.31;5090027;28;20028;-71
2023/07/07 05:30:14;;;;;;;1999.90;999.90;;;;;;;27.16;35.50;101983.78;5079510;28;20020;-72
2023/07/07 05:32:40;;;;;;;1999.90;999.90;;;;;;;27.55;35.44;101980.44;5086140;28;20031;-72
2023/07/07 05:35:05;;;;;;;1999.90;999.90;;;;;;;27.51;34.94;101978.91;5085923;28;20024;-72
2023/07/07 05:37:31;;;;;;;1999.90;999.90;;;;;;;27.06;36.33;101978.16;5082431;28;20030;-72
2023/07/07 05:39:57;;;;;;;1999.90;999.90;;;;;;;27.20;35.64;101988.91;5086514;28;20016;-72
2023/07/07 05:42:22;;;;;;;1999.90;999.90;;;;;;;27.23;36.09;101980.66;5089105;28;20024;-72
2023/07/07 05:44:51;;;;;;;1999.90;999.90;;;;;;;27.48;35.40;101983.63;5079659;28;20392;-72
2023/07/07 05:47:16;;;;;;;1999.90;999.90;;;;;;;26.84;36.75;101995.56;5072529;28;20035;-72
2023/07/07 05:49:41;;;;;;;1999.90;999.90;;;;;;;27.32;36.06;101989.06;5070785;28;20025;-72
2023/07/07 05:52:08;;;;;;;1999.90;999.90;;;;;;;27.21;36.40;101993.28;5068416;28;20043;-73
2023/07/07 05:54:34;;;;;;;1999.90;999.90;;;;;;;27.24;35.96;101997.59;5080033;28;20028;-73
2023/07/07 05:57:00;;;;;;;1999.90;999.90;;;;;;;27.15;36.08;101999.03;5070979;28;20031;-72
2023/07/07 05:59:26;;;;;;;1999.90;999.90;;;;;;;27.66;35.50;101992.34;5070230;28;20028;-72
2023/07/07 06:01:51;;;;;;;1999.90;999.90;;;;;;;27.67;35.63;102000.28;5070403;28;20024;-71
2023/07/07 06:04:16;;;;;;;1999.90;999.90;;;;;;;27.33;36.00;101997.03;5088549;28;20040;-71
2023/07/07 06:06:42;;;;;;;1999.90;999.90;;;;;;;27.53;35.76;101998.50;5088204;28;20399;-72
2023/07/07 06:09:07;;;;;;;1999.90;999.90;;;;;;;27.80;35.72;101992.28;5090481;28;20466;-72
2023/07/07 06:11:33;;;;;;;1999.90;999.90;;;;;;;27.86;35.55;101991.91;5090741;28;20027;-72
2023/07/07 06:13:59;;;;;;;1999.90;999.90;;;;;;;28.02;35.28;101994.47;5090020;28;20039;-72
2023/07/07 06:16:24;;;;;;;1999.90;999.90;;;;;;;27.76;36.26;101998.81;5074975;28;20028;-72
2023/07/07 06:18:49;;;;;;;1999.90;999.90;;;;;;;28.21;35.62;101994.09;5083241;28;20117;-73
2023/07/07 06:21:15;;;;;;;1999.90;999.90;;;;;;;28.68;34.88;101991.03;5091422;28;20550;-73
2023/07/07 06:23:43;;;;;;;1999.90;999.90;;;;;;;30.43;32.47;101998.16;5090642;28;20076;-72
2023/07/07 06:26:08;;;;;;;1999.90;999.90;;;;;;;32.02;30.83;101998.28;5081526;28;20028;-73
2023/07/07 06:28:34;;;;;;;1999.90;999.90;;;;;;;33.57;27.39;102004.84;5085509;28;20080;-73
2023/07/07 06:30:59;;;;;;;1999.90;999.90;;;;;;;34.60;26.22;101995.34;5086015;28;20036;-73
2023/07/07 06:33:25;;;;;;;1999.90;999.90;;;;;;;36.06;24.52;102003.03;5087089;28;20503;-73
2023/07/07 06:35:50;;;;;;;1999.90;999.90;;;;;;;36.61;24.25;101997.34;5089347;28;20035;-72
2023/07/07 06:38:16;;;;;;;1999.90;999.90;;;;;;;35.73;24.05;102013.53;5074064;28;20031;-73
2023/07/07 06:40:42;;;;;;;1999.90;999.90;;;;;;;36.51;23.74;102002.06;5068927;28;20120;-73
2023/07/07 06:43:07;;;;;;;1999.90;999.90;;;;;;;37.93;22.48;102008.03;5080330;28;20071;-73
2023/07/07 06:45:34;;;;;;;1999.90;999.90;;;;;;;38.33;22.85;102012.72;5086515;28;20027;-73
2023/07/07 06:48:02;;;;;;;1999.90;999.90;;;;;;;38.05;21.88;102012.16;5088734;28;20020;-73
2023/07/07 06:50:33;;;;;;;1999.90;999.90;;;;;;;39.11;20.61;102017.69;5089477;28;20028;-73
2023/07/07 06:52:59;;;;;;;1999.90;999.90;;;;;;;39.39;20.70;102014.53;5074587;28;20023;-73
2023/07/07 06:55:24;;;;;;;1999.90;999.90;;;;;;;39.64;19.85;102018.88;5088733;28;20047;-73
2023/07/07 06:57:50;;;;;;;1999.90;999.90;;;;;;;38.61;20.41;102017.78;5088116;28;20032;-70
2023/07/07 07:00:16;;;;;;;1999.90;999.90;;;;;;;40.12;18.87;102021.47;5088887;28;20465;-70
2023/07/07 07:02:43;;;;;;;1999.90;999.90;;;;;;;37.92;19.77;102020.84;5084377;28;20068;-71
2023/07/07 07:05:09;;;;;;;1999.90;999.90;;;;;;;39.28;19.97;102013.91;5071617;28;20086;-70
2023/07/07 07:07:35;;;;;;;1999.90;999.90;;;;;;;39.68;19.04;102024.81;5089199;28;20024;-70
2023/07/07 07:10:02;;;;;;;1999.90;999.90;;;;;;;39.89;18.88;102026.91;5088225;28;20031;-70
2023/07/07 07:12:28;;;;;;;1999.90;999.90;;;;;;;39.75;18.86;102030.41;5086168;28;20031;-70
2023/07/07 07:14:53;;;;;;;1999.90;999.90;;;;;;;40.54;18.59;102021.97;5082806;28;20067;-73
2023/07/07 07:17:20;;;;;;;1999.90;999.90;;;;;;;39.80;18.37;102022.53;5082475;28;20056;-73
2023/07/07 07:19:46;;;;;;;1999.90;999.90;;;;;;;41.26;17.83;102022.38;5083647;28;20468;-73
2023/07/07 07:22:11;;;;;;;1999.90;999.90;;;;;;;40.37;18.46;102024.84;5079905;28;20053;-70
2023/07/07 07:24:37;;;;;;;1999.90;999.90;;;;;;;39.78;18.61;102024.59;5067628;28;20077;-70
2023/07/07 07:27:04;;;;;;;1999.90;999.90;;;;;;;41.27;17.81;102022.19;5070911;28;20055;-71
2023/07/07 07:29:30;;;;;;;1999.90;999.90;;;;;;;41.37;18.13;102031.00;5079300;28;20021;-70
2023/07/07 07:31:55;;;;;;;1999.90;999.90;;;;;;;41.56;17.36;102016.88;5083606;28;20024;-70
2023/07/07 07:34:24;;;;;;;1999.90;999.90;;;;;;;41.01;17.25;102031.78;5089004;28;20035;-70
2023/07/07 07:36:51;;;;;;;1999.90;999.90;;;;;;;41.12;17.62;102021.38;5087892;28;20027;-72
2023/07/07 07:39:17;;;;;;;1999.90;999.90;;;;;;;41.32;16.81;102030.69;5088994;28;20024;-70
2023/07/07 07:41:46;;;;;;;1999.90;999.90;;;;;;;40.61;17.71;102041.25;5088088;28;20170;-70
2023/07/07 07:44:11;;;;;;;1999.90;999.90;;;;;;;40.64;18.23;102036.25;5078962;28;20168;-70
2023/07/07 07:46:37;;;;;;;1999.90;999.90;;;;;;;40.64;18.40;102041.75;5089905;28;20036;-70
2023/07/07 07:49:02;;;;;;;1999.90;999.90;;;;;;;41.34;17.33;102033.25;5087747;28;20031;-70
2023/07/07 07:51:28;;;;;;;1999.90;999.90;;;;;;;41.37;17.20;102036.50;5085165;28;20563;-70
2023/07/07 07:53:53;;;;;;;1999.90;999.90;;;;;;;42.58;16.42;102037.72;5080131;28;20036;-70
2023/07/07 07:56:18;;;;;;;1999.90;999.90;;;;;;;43.79;15.92;102030.09;5052994;28;20079;-71
2023/07/07 07:58:44;;;;;;;1999.90;999.90;;;;;;;44.17;15.92;102038.63;5040037;28;20074;-70
2023/07/07 08:01:10;;;;;;;1999.90;999.90;;;;;;;43.56;15.57;102034.06;5031007;28;20082;-71
2023/07/07 08:03:35;;;;;;;1999.90;999.90;;;;;;;44.12;15.23;102034.81;5061355;28;20075;-71
2023/07/07 08:06:00;;;;;;;1999.90;999.90;;;;;;;44.85;14.98;102036.72;5049925;28;20126;-72
2023/07/07 08:08:26;;;;;;;1999.90;999.90;;;;;;;44.62;15.40;102043.50;5051393;28;20033;-72
2023/07/07 08:10:51;;;;;;;1999.90;999.90;;;;;;;43.64;15.51;102036.66;5050474;28;20477;-72
2023/07/07 08:13:16;;;;;;;1999.90;999.90;;;;;;;43.43;16.04;102034.00;5040719;28;20040;-72
2023/07/07 08:15:42;;;;;;;1999.90;999.90;;;;;;;44.41;15.23;102046.50;5048396;28;20430;-72
2023/07/07 08:18:08;;;;;;;1999.90;999.90;;;;;;;42.96;15.89;102045.59;5035025;28;20043;-72
2023/07/07 08:20:33;;;;;;;1999.90;999.90;;;;;;;43.36;16.18;102043.09;5052099;28;20485;-72
2023/07/07 08:22:59;;;;;;;1999.90;999.90;;;;;;;44.63;15.25;102053.47;5043539;28;20089;-72
2023/07/07 08:25:27;;;;;;;1999.90;999.90;;;;;;;44.80;14.78;102050.31;5055245;28;20069;-72
2023/07/07 08:27:53;;;;;;;1999.90;999.90;;;;;;;44.63;14.80;102045.22;5063060;28;20126;-72
2023/07/07 08:30:19;;;;;;;1999.90;999.90;;;;;;;43.72;15.22;102055.72;5054252;28;20508;-72
2023/07/07 08:32:45;;;;;;;1999.90;999.90;;;;;;;43.59;14.81;102044.66;5054333;28;20032;-72
2023/07/07 08:35:11;;;;;;;1999.90;999.90;;;;;;;43.46;14.99;102044.59;5054505;28;20039;-73
2023/07/07 08:37:37;;;;;;;1999.90;999.90;;;;;;;44.32;13.80;102046.72;5054782;28;20035;-72
2023/07/07 08:40:03;;;;;;;1999.90;999.90;;;;;;;43.89;14.44;102049.84;5071714;28;20021;-72
2023/07/07 08:42:37;;;;;;;1999.90;999.90;;;;;;;44.61;15.43;102052.84;5053366;28;20476;-72
2023/07/07 08:45:18;;;;;;;1999.90;999.90;;;;;;;44.22;14.49;102057.28;5072296;28;20021;-72
2023/07/07 08:48:13;;;;;;;1999.90;999.90;;;;;;;44.47;14.57;102045.66;5071649;28;20024;-72
2023/07/07 08:50:45;;;;;;;1999.90;999.90;;;;;;;44.92;13.78;102054.09;5054941;28;20046;-72
2023/07/07 08:53:22;;;;;;;1999.90;999.90;;;;;;;43.26;14.24;102039.84;5067335;28;20036;-73
2023/07/07 08:56:07;;;;;;;1999.90;999.90;;;;;;;43.65;14.09;102042.97;5078294;28;20040;-72
2023/07/07 08:58:43;;;;;;;1999.90;999.90;;;;;;;45.11;14.24;102040.47;5077386;28;20101;-72
2023/07/07 09:01:43;;;;;;;1999.90;999.90;;;;;;;42.10;15.24;102032.88;5075900;28;20032;-72
2023/07/07 09:04:40;;;;;;;1999.90;999.90;;;;;;;44.40;14.99;102042.91;5087956;28;20031;-73
2023/07/07 09:07:11;;;;;;;1999.90;999.90;;;;;;;44.23;13.92;102029.53;5087973;28;20482;-72
2023/07/07 09:10:10;;;;;;;1999.90;999.90;;;;;;;44.41;14.14;102029.97;5090946;28;20430;-73
2023/07/07 09:13:05;;;;;;;1999.90;999.90;;;;;;;43.96;14.04;102045.19;5090526;28;20122;-73
2023/07/07 09:15:36;;;;;;;1999.90;999.90;;;;;;;44.41;15.21;102029.97;5063510;28;20040;-72
2023/07/07 09:18:18;;;;;;;1999.90;999.90;;;;;;;43.66;14.08;102034.50;5091320;28;20031;-73
2023/07/07 09:20:49;;;;;;;1999.90;999.90;;;;;;;43.04;14.43;102028.94;5091480;28;20111;-73
2023/07/07 09:23:17;;;;;;;;;;;;;;;43.01;14.65;102037.59;5091577;28;20122;-72
2023/07/07 09:25:51;;;;;;;1999.90;999.90;;;;;;;42.95;14.29;102032.94;5082975;28;19935;-73
2023/07/07 09:28:17;;;;;;;1999.90;999.90;;;;;;;44.14;13.78;102030.78;5071210;28;20028;-72
2023/07/07 09:31:17;;;;;;;1999.90;999.90;;;;;;;44.15;13.68;102038.00;5070171;28;20025;-72
2023/07/07 09:33:43;;;;;;;1999.90;999.90;;;;;;;44.62;13.16;102037.16;5077657;28;20028;-72
2023/07/07 09:36:33;;;;;;;1999.90;999.90;;;;;;;45.56;12.53;102033.06;5070232;28;20043;-72
2023/07/07 09:39:21;;;;;;;1999.90;999.90;;;;;;;45.30;12.98;102034.03;5069722;28;20499;-72
2023/07/07 09:42:05;;;;;;;1999.90;999.90;;;;;;;45.15;13.15;102030.69;5072083;28;20028;-72
2023/07/07 09:44:36;;;;;;;1999.90;999.90;;;;;;;45.48;12.25;102038.00;5060980;28;20502;-73
2023/07/07 09:47:14;;;;;;;1999.90;999.90;;;;;;;44.56;12.40;102038.88;5082627;28;20035;-73
2023/07/07 09:49:47;;;;;;;1999.90;999.90;;;;;;;43.96;13.14;102036.94;5087299;28;20436;-73
2023/07/07 09:52:38;;;;;;;1999.90;999.90;;;;;;;45.04;13.11;102030.28;5078913;28;20063;-73
2023/07/07 09:55:27;;;;;;;1999.90;999.90;;;;;;;44.59;13.24;102032.94;5079071;28;20123;-73
2023/07/07 09:58:15;;;;;;;1999.90;999.90;;;;;;;45.35;12.28;102036.13;5079542;28;20093;-73
2023/07/07 10:00:44;;;;;;;1999.90;999.90;;;;;;;43.00;12.53;102030.41;5080375;28;20490;-73
2023/07/07 10:03:35;;;;;;;1999.90;999.90;;;;;;;45.20;11.75;102028.13;5079093;28;20031;-72
2023/07/07 10:06:04;;;;;;;1999.90;999.90;;;;;;;44.40;11.86;102034.66;5067678;28;20048;-73
2023/07/07 10:08:30;;;;;;;1999.90;999.90;;;;;;;44.18;12.36;102034.00;5104695;28;20028;-72
2023/07/07 10:11:24;;;;;;;1999.90;999.90;;;;;;;44.57;12.06;102035.03;5088574;28;20032;-73
2023/07/07 10:13:52;;;;;;;1999.90;999.90;;;;;;;43.09;13.30;102024.75;5084421;28;20463;-72
2023/07/07 10:16:56;;;;;;;1999.90;999.90;;;;;;;43.19;13.72;102022.50;5089150;28;20487;-72
2023/07/07 10:19:24;;;;;;;1999.90;999.90;;;;;;;44.09;12.20;102027.00;5080683;28;20028;-72
2023/07/07 10:21:49;;;;;;;1999.90;999.90;;;;;;;43.11;12.94;102019.91;5079440;28;20040;-73
2023/07/07 10:24:15;;;;;;;1999.90;999.90;;;;;;;43.02;13.58;102017.31;5082250;28;20102;-72
2023/07/07 10:26:45;;;;;;;1999.90;999.90;;;;;;;43.21;13.97;102023.13;5071481;28;20115;-72
2023/07/07 10:29:15;;;;;;;1999.90;999.90;;;;;;;43.57;13.67;102021.16;5081900;28;20119;-73
2023/07/07 10:31:43;;;;;;;1999.90;999.90;;;;;;;43.59;12.99;102014.41;5084031;28;20050;-72
2023/07/07 10:34:26;;;;;;;1999.90;999.90;;;;;;;44.54;12.24;102018.94;5077460;28;20475;-72
2023/07/07 10:36:54;;;;;;;1999.90;999.90;;;;;;;43.68;13.43;102020.53;5081759;28;20045;-72
2023/07/07 10:39:22;;;;;;;1999.90;999.90;;;;;;;44.22;12.25;102021.50;5075211;28;20479;-72
2023/07/07 10:41:50;;;;;;;1999.90;999.90;;;;;;;44.52;11.93;102023.84;5075152;28;20024;-72
2023/07/07 10:44:15;;;;;;;1999.90;999.90;;;;;;;44.78;12.44;102014.69;5087816;28;20120;-73
2023/07/07 10:46:41;;;;;;;1999.90;999.90;;;;;;;44.08;12.76;102014.28;5071978;28;20059;-72
2023/07/07 10:49:15;;;;;;;1999.90;999.90;;;;;;;42.97;13.62;102019.81;5080825;28;20384;-72
2023/07/07 10:52:11;;;;;;;1999.90;999.90;;;;;;;43.17;13.12;102013.59;5086602;28;20039;-72
2023/07/07 10:54:59;;;;;;;1999.90;999.90;;;;;;;41.53;13.64;102007.13;5069553;28;20056;-72
2023/07/07 10:57:40;;;;;;;1999.90;999.90;;;;;;;43.76;13.42;102005.75;5079749;28;20028;-72